Time;durP1;ratioP1;P1;durP2;ratioP2;P2;SDS_P1;SDS_P2;PMS_P1;PMS_P2;Temp;Humidity;BMP_temperature;BMP_pressure;BME280_temperature;BME280_humidity;BME280_pressure;Samples;Min_cycle;Max_cycle;Signal;HPM_P1;HPM_P2
2021/11/12 00:11:49;;;;;;;53.45;28.75;;;;;;;1.56;100.00;98227.63;5133652;27;20034;-76
2021/11/12 00:15:37;;;;;;;48.25;23.77;;;;;;;1.73;100.00;98243.16;5131000;27;20019;-76
2021/11/12 00:18:04;;;;;;;48.38;21.90;;;;;;;1.71;100.00;98239.69;5116418;27;20019;-75
2021/11/12 00:20:30;;;;;;;40.35;20.42;;;;;;;1.70;100.00;98235.31;5101865;28;20030;-76
2021/11/12 00:22:55;;;;;;;41.85;20.00;;;;;;;1.70;100.00;98239.72;5113182;27;20023;-75
2021/11/12 00:25:21;;;;;;;43.25;21.67;;;;;;;1.61;100.00;98219.63;5132973;27;20379;-75
2021/11/12 00:27:48;;;;;;;44.83;21.15;;;;;;;1.60;100.00;98239.84;5104906;28;20407;-76
2021/11/12 00:31:20;;;;;;;43.58;20.95;;;;;;;1.49;100.00;98225.09;5132592;27;20019;-76
2021/11/12 00:35:57;;;;;;;41.22;22.08;;;;;;;1.39;100.00;98210.31;5132903;27;20019;-75
2021/11/12 00:38:27;;;;;;;42.13;18.65;;;;;;;1.35;100.00;98214.78;5133157;27;20023;-76
2021/11/12 00:41:00;;;;;;;32.13;17.15;;;;;;;1.15;100.00;98185.22;5129913;27;20031;-76
2021/11/12 00:48:35;;;;;;;35.17;16.42;;;;;;;1.47;100.00;98213.72;5120505;27;20502;-76
2021/11/12 00:51:17;;;;;;;36.85;16.65;;;;;;;1.36;100.00;98198.06;5124118;27;20106;-76
2021/11/12 00:53:50;;;;;;;35.38;16.55;;;;;;;1.47;100.00;98214.59;5117614;27;20084;-76
2021/11/12 00:56:16;;;;;;;38.65;17.17;;;;;;;1.42;100.00;98210.28;5116114;27;20019;-75
2021/11/12 00:58:42;;;;;;;34.28;17.40;;;;;;;1.40;100.00;98205.03;5115109;27;20041;-76
2021/11/12 01:01:08;;;;;;;39.90;19.20;;;;;;;1.37;100.00;98207.72;5097243;28;20031;-76
2021/11/12 01:03:34;;;;;;;37.92;18.00;;;;;;;1.29;100.00;98199.06;5128423;27;20023;-75
2021/11/12 01:06:00;;;;;;;39.22;17.92;;;;;;;1.31;100.00;98207.81;5114788;27;20152;-77
2021/11/12 01:08:27;;;;;;;40.80;18.70;;;;;;;1.35;100.00;98203.38;5115086;27;20031;-76
2021/11/12 01:10:53;;;;;;;38.10;18.58;;;;;;;1.35;100.00;98212.16;5132045;27;20019;-76
2021/11/12 01:13:19;;;;;;;35.17;18.13;;;;;;;1.20;100.00;98207.06;5131897;27;20397;-76
2021/11/12 01:15:44;;;;;;;40.97;19.92;;;;;;;1.26;100.00;98204.34;5106130;28;20034;-76
2021/11/12 01:18:10;;;;;;;53.95;23.13;;;;;;;1.18;100.00;98193.06;5112403;27;20022;-77
2021/11/12 01:20:36;;;;;;;47.17;22.85;;;;;;;1.20;100.00;98193.91;5132108;27;20118;-76
2021/11/12 01:23:02;;;;;;;44.85;21.40;;;;;;;1.15;100.00;98179.94;5129323;27;20513;-77
2021/11/12 01:25:27;;;;;;;45.60;22.02;;;;;;;1.14;100.00;98172.09;5128574;27;20132;-77
2021/11/12 01:27:53;;;;;;;41.65;21.17;;;;;;;1.12;100.00;98179.13;5105354;28;20035;-76
2021/11/12 01:30:19;;;;;;;48.38;21.02;;;;;;;1.22;100.00;98192.13;5113320;27;20397;-77
2021/11/12 01:32:48;;;;;;;46.20;22.60;;;;;;;1.25;100.00;98189.47;5131829;27;20091;-77
2021/11/12 01:35:14;;;;;;;48.28;22.85;;;;;;;1.22;100.00;98197.41;5116262;27;20114;-76
2021/11/12 01:37:42;;;;;;;62.55;32.58;;;;;;;1.24;100.00;98190.34;5116822;27;20015;-76
2021/11/12 01:40:17;;;;;;;53.78;25.10;;;;;;;1.31;100.00;98194.63;5094862;28;20081;-76
2021/11/12 01:43:25;;;;;;;52.78;24.20;;;;;;;1.40;100.00;98193.63;5127661;27;20023;-76
2021/11/12 01:46:09;;;;;;;47.30;23.50;;;;;;;1.28;100.00;98192.06;5114937;27;20051;-75
2021/11/12 01:48:48;;;;;;;48.35;24.25;;;;;;;1.20;100.00;98183.38;5132654;27;20160;-75
2021/11/12 01:53:51;;;;;;;52.63;24.17;;;;;;;1.19;100.00;98192.19;5112281;28;20088;-75
2021/11/12 02:01:22;;;;;;;49.58;21.00;;;;;;;1.11;100.00;98182.66;5119241;27;20055;-75
2021/11/12 02:03:49;;;;;;;36.30;17.98;;;;;;;1.03;100.00;98172.22;5127524;27;20099;-75
2021/11/12 02:06:18;;;;;;;32.78;17.35;;;;;;;1.00;100.00;98174.91;5130964;27;20474;-75
2021/11/12 02:08:45;;;;;;;42.95;17.15;;;;;;;0.88;100.00;98167.19;5110700;27;20031;-75
2021/11/12 02:11:11;;;;;;;32.10;16.88;;;;;;;0.90;100.00;98173.28;5098070;27;20464;-76
2021/11/12 02:13:36;;;;;;;34.28;16.60;;;;;;;0.83;100.00;98171.66;5132875;27;20027;-76
2021/11/12 02:16:06;;;;;;;34.55;17.67;;;;;;;0.70;100.00;98165.66;5132178;27;20023;-76
2021/11/12 02:18:36;;;;;;;38.35;19.15;;;;;;;0.79;100.00;98164.66;5128255;27;20402;-76
2021/11/12 02:21:23;;;;;;;39.33;19.45;;;;;;;0.78;100.00;98171.69;5111903;27;20110;-77
2021/11/12 02:24:06;;;;;;;44.50;22.15;;;;;;;0.55;100.00;98145.66;5091690;28;20031;-75
2021/11/12 02:26:36;;;;;;;44.05;21.45;;;;;;;0.50;100.00;98129.06;5096074;27;20027;-75
2021/11/12 02:29:09;;;;;;;40.40;19.17;;;;;;;0.61;100.00;98168.41;5128037;27;20098;-77
2021/11/12 02:31:39;;;;;;;42.28;19.65;;;;;;;0.38;100.00;98125.72;5130188;27;20395;-77
2021/11/12 02:34:09;;;;;;;38.65;19.83;;;;;;;0.57;100.00;98164.06;5123763;27;20092;-75
2021/11/12 02:36:35;;;;;;;44.10;20.25;;;;;;;0.53;100.00;98147.44;5106877;27;20019;-75
2021/11/12 02:39:03;;;;;;;72.20;22.58;;;;;;;0.55;100.00;98156.19;5104960;28;20019;-75
2021/11/12 02:41:29;;;;;;;140.35;25.05;;;;;;;0.39;100.00;98123.09;5106484;27;20121;-76
2021/11/12 02:43:55;;;;;;;67.78;23.55;;;;;;;0.40;100.00;98142.38;5116308;28;20059;-75
2021/11/12 02:46:25;;;;;;;53.92;25.38;;;;;;;0.50;100.00;98152.75;5095770;28;20038;-76
2021/11/12 02:48:51;;;;;;;41.63;21.90;;;;;;;0.54;100.00;98149.19;5113841;28;20026;-76
2021/11/12 02:51:23;;;;;;;53.50;23.85;;;;;;;0.61;100.00;98157.03;5124269;27;20028;-76
2021/11/12 02:53:50;;;;;;;48.92;24.25;;;;;;;0.59;100.00;98153.50;5113689;28;20498;-76
2021/11/12 02:56:32;;;;;;;46.92;23.10;;;;;;;0.55;100.00;98139.56;5113048;28;20035;-76
2021/11/12 02:59:04;;;;;;;52.65;22.88;;;;;;;0.69;100.00;98147.25;5101114;28;20024;-76
2021/11/12 03:01:31;;;;;;;46.90;22.27;;;;;;;0.72;100.00;98147.22;5111985;28;20483;-76
2021/11/12 03:03:58;;;;;;;47.80;22.85;;;;;;;0.47;100.00;98115.94;5113335;27;20034;-76
2021/11/12 03:06:24;;;;;;;47.55;23.17;;;;;;;0.68;100.00;98158.69;5130118;27;20058;-75
2021/11/12 03:08:50;;;;;;;50.58;23.65;;;;;;;0.57;100.00;98118.47;5130646;27;20482;-76
2021/11/12 03:11:17;;;;;;;45.60;23.25;;;;;;;0.46;100.00;98108.94;5095891;28;20039;-77
2021/11/12 03:13:45;;;;;;;47.28;22.70;;;;;;;0.60;100.00;98134.22;5123612;28;20031;-76
2021/11/12 03:16:13;;;;;;;49.03;22.08;;;;;;;0.60;100.00;98147.38;5104703;28;20083;-77
2021/11/12 03:18:39;;;;;;;56.25;24.65;;;;;;;0.46;100.00;98130.00;5099814;28;20023;-76
2021/11/12 03:21:07;;;;;;;52.53;26.00;;;;;;;0.55;100.00;98140.41;5109152;28;20497;-75
2021/11/12 03:23:40;;;;;;;52.40;26.00;;;;;;;0.59;100.00;98143.88;5118221;28;20102;-77
2021/11/12 03:26:57;;;;;;;53.05;25.90;;;;;;;0.39;100.00;98117.81;5124916;27;20023;-76
2021/11/12 04:01:16;;;;;;;53.88;24.20;;;;;;;0.33;100.00;98130.19;5106774;28;20112;-74
2021/11/12 04:22:27;;;;;;;97.85;28.13;;;;;;;0.22;100.00;98134.69;5136106;27;20056;-80
2021/11/12 05:46:10;;;;;;;168.25;31.85;;;;;;;0.82;100.00;98133.03;5112150;28;20466;-73
2021/11/12 05:56:42;;;;;;;205.90;48.83;;;;;;;1.03;100.00;98132.72;5123962;27;20039;-74
2021/11/12 05:59:10;;;;;;;124.18;42.63;;;;;;;1.19;100.00;98144.78;5111501;28;20047;-73
2021/11/12 06:01:37;;;;;;;208.15;47.85;;;;;;;1.45;100.00;98144.34;5094718;28;20016;-73
2021/11/12 06:04:04;;;;;;;200.38;48.08;;;;;;;1.30;100.00;98142.81;5105191;27;20046;-74
2021/11/12 06:06:30;;;;;;;164.38;47.05;;;;;;;1.19;100.00;98149.16;5117927;27;20031;-74
2021/11/12 06:08:56;;;;;;;118.95;48.40;;;;;;;1.24;100.00;98148.19;5094274;28;20032;-73
2021/11/12 06:11:23;;;;;;;222.80;49.42;;;;;;;1.26;100.00;98145.56;5111040;28;20024;-74
2021/11/12 06:13:53;;;;;;;139.15;44.45;;;;;;;1.32;100.00;98140.19;5128381;27;20102;-74
2021/11/12 06:16:19;;;;;;;152.63;36.25;;;;;;;1.22;100.00;98149.13;5114263;27;20035;-74
2021/11/12 06:18:45;;;;;;;97.18;32.65;;;;;;;1.40;100.00;98159.38;5114261;27;20027;-74
2021/11/12 06:21:11;;;;;;;120.85;36.22;;;;;;;1.45;100.00;98158.38;5100786;28;20110;-74
2021/11/12 06:23:37;;;;;;;133.23;43.25;;;;;;;1.45;100.00;98146.97;5094026;28;20035;-74
2021/11/12 06:26:03;;;;;;;85.32;34.97;;;;;;;1.51;100.00;98146.88;5122785;27;20118;-74
2021/11/12 06:28:30;;;;;;;135.70;39.13;;;;;;;1.58;100.00;98144.13;5119857;27;20038;-75
2021/11/12 06:30:56;;;;;;;123.18;42.97;;;;;;;1.94;100.00;98141.75;5120338;27;20057;-74
2021/11/12 06:33:23;;;;;;;109.30;37.72;;;;;;;1.99;100.00;98155.72;5128221;27;20032;-75
2021/11/12 06:35:52;;;;;;;154.02;38.90;;;;;;;2.13;100.00;98158.94;5111707;28;20023;-74
2021/11/12 06:38:21;;;;;;;135.40;40.63;;;;;;;2.23;100.00;98138.53;5113172;27;20026;-74
2021/11/12 06:40:46;;;;;;;139.35;51.22;;;;;;;2.16;100.00;98148.34;5132823;27;20023;-74
2021/11/12 06:51:24;;;;;;;147.90;52.35;;;;;;;2.12;100.00;98142.25;5120315;28;20110;-75
2021/11/12 06:53:54;;;;;;;160.02;48.63;;;;;;;2.36;100.00;98140.91;5118436;28;20042;-74
2021/11/12 06:56:30;;;;;;;102.97;37.28;;;;;;;2.46;100.00;98129.25;5115014;28;20509;-89
2021/11/12 06:59:29;;;;;;;;;;;;;;;;;;;;;
2021/11/12 07:29:55;;;;;;;147.32;49.03;;;;;;;3.38;100.00;98094.59;4955493;29;20062;-75
2021/11/12 07:32:21;;;;;;;171.40;54.80;;;;;;;3.73;100.00;98102.47;4923633;28;20040;-74
2021/11/12 07:34:50;;;;;;;206.50;59.70;;;;;;;4.10;100.00;98109.44;5049558;28;20268;-73
2021/11/12 07:37:16;;;;;;;156.52;56.00;;;;;;;4.42;100.00;98104.13;5109301;28;20328;-78
2021/11/12 07:45:19;;;;;;;121.13;45.83;;;;;;;4.46;100.00;98113.69;5059862;28;20051;-75
2021/11/12 07:47:45;;;;;;;119.88;43.80;;;;;;;4.61;100.00;98115.91;5066189;28;20114;-79
2021/11/12 07:50:14;;;;;;;108.82;46.63;;;;;;;4.77;98.69;98108.34;5088980;27;20035;-93
2021/11/12 07:59:20;;;;;;;139.15;53.78;;;;;;;5.17;95.94;98111.53;5018179;28;20053;-92
2021/11/12 08:01:49;;;;;;;145.85;56.80;;;;;;;4.95;94.31;98052.16;4996057;28;20030;-79
2021/11/12 08:04:15;;;;;;;111.70;47.30;;;;;;;5.29;93.37;98094.38;5011188;28;20050;-81
2021/11/12 09:04:48;;;;;;;62.38;34.22;;;;;;;15.70;46.95;98006.03;4928686;28;20047;-83
2021/11/12 09:07:14;;;;;;;70.45;38.47;;;;;;;16.22;44.56;97977.75;5025488;28;20040;-82
2021/11/12 09:09:41;;;;;;;63.25;36.97;;;;;;;16.54;45.03;98048.16;5092143;27;20039;-82
2021/11/12 09:12:09;;;;;;;59.55;33.05;;;;;;;17.08;43.45;98035.72;5087255;28;20020;-82
2021/11/12 09:14:38;;;;;;;54.50;31.50;;;;;;;16.68;44.08;98024.50;5093401;27;20141;-82
2021/11/12 09:17:05;;;;;;;54.03;30.23;;;;;;;16.26;45.31;98035.94;5106002;27;20023;-81
2021/11/12 09:19:32;;;;;;;53.85;29.70;;;;;;;16.09;45.57;98029.13;5071167;28;20050;-74
2021/11/12 09:21:58;;;;;;;58.17;28.40;;;;;;;17.22;43.60;98024.66;5082813;28;20445;-75
2021/11/12 09:24:24;;;;;;;54.03;29.20;;;;;;;18.15;42.06;98016.94;5076952;28;20234;-75
2021/11/12 09:26:49;;;;;;;50.17;29.75;;;;;;;18.23;41.10;98007.16;5071373;28;20038;-75
2021/11/12 09:29:15;;;;;;;59.35;30.15;;;;;;;18.70;40.33;98003.06;5101856;28;20413;-75
2021/11/12 09:31:42;;;;;;;56.63;29.15;;;;;;;18.54;40.03;98010.81;5090826;27;20035;-75
2021/11/12 09:34:11;;;;;;;51.47;27.27;;;;;;;18.20;40.23;97998.44;5096909;27;20069;-77
2021/11/12 09:36:37;;;;;;;47.78;26.17;;;;;;;18.11;39.92;98000.06;5105947;27;20052;-74
2021/11/12 09:39:03;;;;;;;50.75;26.70;;;;;;;18.50;40.22;98000.38;5089553;27;20088;-74
2021/11/12 09:41:29;;;;;;;45.05;26.80;;;;;;;18.47;39.60;97996.06;5095731;28;20024;-74
2021/11/12 09:43:56;;;;;;;48.08;28.67;;;;;;;17.25;41.31;97994.66;5078552;27;20494;-74
2021/11/12 09:46:21;;;;;;;53.47;29.65;;;;;;;17.23;41.86;97996.63;5097512;28;20471;-74
2021/11/12 09:48:47;;;;;;;53.08;29.25;;;;;;;17.28;41.70;97978.19;5112431;27;20031;-74
2021/11/12 09:51:13;;;;;;;50.42;28.55;;;;;;;18.50;39.93;97984.97;5111214;27;20019;-74
2021/11/12 09:53:39;;;;;;;43.13;26.52;;;;;;;19.55;38.12;97972.84;5093288;28;20457;-76
2021/11/12 09:56:08;;;;;;;55.33;22.42;;;;;;;20.18;35.85;97966.88;5081916;28;20081;-76
2021/11/12 09:58:37;;;;;;;41.90;25.38;;;;;;;20.50;35.57;97959.28;5079433;28;20024;-84
2021/11/12 10:01:05;;;;;;;39.63;24.50;;;;;;;20.77;34.68;97944.91;5079167;27;20118;-76
2021/11/12 10:03:34;;;;;;;41.42;25.23;;;;;;;21.28;33.03;97938.13;5121737;27;20026;-75
2021/11/12 10:06:01;;;;;;;44.08;26.77;;;;;;;21.93;32.32;97931.53;5119661;27;20151;-77
2021/11/12 10:08:37;;;;;;;30.77;20.88;;;;;;;21.95;31.63;97918.59;5119806;27;20023;-76
2021/11/12 10:11:06;;;;;;;44.00;30.05;;;;;;;21.16;33.10;97920.28;5134144;27;20030;-81
2021/11/12 10:13:34;;;;;;;51.58;34.17;;;;;;;21.76;32.85;97916.00;5108726;27;20120;-74
2021/11/12 10:19:14;;;;;;;48.55;31.40;;;;;;;22.48;31.76;97910.34;5148293;27;20023;-75
2021/11/12 10:21:43;;;;;;;52.28;35.13;;;;;;;22.30;31.83;97907.66;5141769;27;20039;-76
2021/11/12 10:24:25;;;;;;;55.80;34.60;;;;;;;21.47;32.62;97899.91;5141633;27;20450;-75
2021/11/12 10:27:08;;;;;;;51.80;32.17;;;;;;;20.98;33.18;97893.84;5140080;27;20419;-75
2021/11/12 10:29:48;;;;;;;59.33;33.85;;;;;;;20.57;34.23;97901.63;5118010;27;20134;-74
2021/11/12 10:32:20;;;;;;;55.03;35.67;;;;;;;20.63;35.07;97901.88;5140751;27;20028;-75
2021/11/12 10:34:48;;;;;;;48.70;32.80;;;;;;;20.55;34.50;97894.47;5108439;27;20027;-75
2021/11/12 10:37:23;;;;;;;57.05;33.50;;;;;;;20.95;33.32;97885.97;5123784;27;20463;-75
2021/11/12 10:40:07;;;;;;;44.63;30.23;;;;;;;21.40;32.13;97880.59;5127888;27;20521;-74
2021/11/12 10:42:39;;;;;;;51.85;28.67;;;;;;;22.13;30.98;97867.66;5111519;27;20502;-74
2021/11/12 10:45:08;;;;;;;40.10;25.02;;;;;;;22.26;30.93;97864.50;5100632;27;20042;-75
2021/11/12 10:47:34;;;;;;;39.35;26.75;;;;;;;21.69;31.85;97863.19;5143333;27;20076;-75
2021/11/12 10:50:09;;;;;;;34.67;23.00;;;;;;;21.96;31.16;97863.97;5121980;27;20037;-74
2021/11/12 10:52:36;;;;;;;38.40;23.38;;;;;;;22.25;30.93;97865.50;5125137;27;20031;-74
2021/11/12 10:55:16;;;;;;;36.78;22.95;;;;;;;22.67;30.50;97855.59;5128112;27;20079;-75
2021/11/12 10:58:02;;;;;;;50.05;31.40;;;;;;;23.78;29.11;97836.09;5098473;27;20505;-75
2021/11/12 11:00:34;;;;;;;38.20;25.52;;;;;;;23.88;29.20;97850.47;5129657;27;20469;-74
2021/11/12 11:03:05;;;;;;;34.67;23.08;;;;;;;23.79;29.34;97854.22;5133853;27;20496;-75
2021/11/12 11:05:50;;;;;;;30.08;19.60;;;;;;;24.66;27.98;97843.38;5106566;27;20047;-76
2021/11/12 11:08:22;;;;;;;22.75;16.13;;;;;;;24.32;28.53;97844.66;5103417;28;20027;-75
2021/11/12 11:10:54;;;;;;;21.70;15.32;;;;;;;23.92;29.05;97843.66;5122479;27;20026;-75
2021/11/12 11:13:22;;;;;;;19.20;13.30;;;;;;;24.05;29.11;97838.53;5093735;27;20035;-75
2021/11/12 11:15:56;;;;;;;18.65;12.30;;;;;;;24.42;28.61;97840.72;5115815;27;20085;-75
2021/11/12 11:18:28;;;;;;;14.48;10.32;;;;;;;24.36;28.33;97835.09;5110580;27;20253;-75
2021/11/12 11:20:59;;;;;;;9.30;7.72;;;;;;;23.97;28.67;97837.66;5127267;27;20060;-75
2021/11/12 11:23:27;;;;;;;15.55;9.32;;;;;;;23.72;29.31;97840.38;5103153;27;20035;-74
2021/11/12 11:26:00;;;;;;;14.02;10.80;;;;;;;22.28;30.97;97848.84;5121662;27;20030;-75
2021/11/12 11:28:25;;;;;;;27.70;18.67;;;;;;;21.93;32.13;97845.19;5106132;28;20106;-74
2021/11/12 11:30:51;;;;;;;15.77;11.38;;;;;;;22.57;30.79;97835.72;5104708;27;20179;-74
2021/11/12 11:33:19;;;;;;;18.30;10.20;;;;;;;23.01;30.14;97837.31;5118538;27;20019;-75
2021/11/12 11:35:46;;;;;;;13.48;9.05;;;;;;;23.01;29.92;97822.84;5096822;27;20094;-75
2021/11/12 11:38:14;;;;;;;12.30;8.35;;;;;;;22.61;30.18;97823.50;5121194;27;20015;-75
2021/11/12 11:40:42;;;;;;;13.73;8.50;;;;;;;22.98;30.94;97829.44;5114797;28;20110;-75
2021/11/12 11:43:08;;;;;;;10.52;7.30;;;;;;;22.73;29.91;97819.47;5110242;27;20035;-74
2021/11/12 11:45:34;;;;;;;12.52;9.27;;;;;;;22.56;30.38;97818.50;5122501;28;20505;-74
2021/11/12 11:48:01;;;;;;;13.57;8.13;;;;;;;22.83;29.68;97816.59;5138248;27;20039;-75
2021/11/12 11:50:29;;;;;;;15.38;7.85;;;;;;;22.87;30.05;97810.66;5118880;27;20407;-75
2021/11/12 11:53:21;;;;;;;10.82;7.68;;;;;;;23.30;29.18;97817.78;5113893;27;20061;-74
2021/11/12 11:55:47;;;;;;;18.23;10.77;;;;;;;24.17;28.32;97804.38;5097855;27;20027;-74
2021/11/12 11:58:32;;;;;;;12.93;8.82;;;;;;;25.33;27.28;97803.56;5123446;27;20516;-75
2021/11/12 12:01:31;;;;;;;15.50;9.02;;;;;;;25.45;27.14;97794.91;5131471;27;20100;-74
2021/11/12 12:04:09;;;;;;;27.58;21.10;;;;;;;25.56;26.77;97794.53;5084370;27;20075;-75
2021/11/12 12:06:36;;;;;;;18.73;10.55;;;;;;;26.17;25.86;97794.38;5126412;27;20031;-75
2021/11/12 12:09:09;;;;;;;13.63;9.15;;;;;;;25.71;25.93;97785.34;5121339;27;20027;-74
2021/11/12 12:11:36;;;;;;;16.88;9.45;;;;;;;24.68;27.06;97780.25;5098250;27;20349;-75
2021/11/12 12:14:33;;;;;;;12.98;8.80;;;;;;;25.15;26.55;97788.44;5112796;27;20031;-75
2021/11/12 12:17:12;;;;;;;12.65;9.68;;;;;;;24.63;27.08;97791.75;5111907;28;20441;-77
2021/11/12 12:19:43;;;;;;;16.55;9.77;;;;;;;25.26;26.38;97785.28;5117447;27;20115;-76
2021/11/12 13:20:43;;;;;;;16.20;7.88;;;;;;;24.25;25.00;97735.97;5116558;27;20186;-75
2021/11/12 13:23:44;;;;;;;11.23;6.60;;;;;;;24.64;24.04;97724.22;5098968;27;20178;-75
2021/11/12 13:26:03;;;;;;;7.93;5.25;;;;;;;24.71;23.39;97727.91;5110839;27;20489;-75
2021/11/12 13:28:33;;;;;;;9.25;5.80;;;;;;;24.64;23.70;97727.78;5113719;27;20075;-75
2021/11/12 13:31:10;;;;;;;15.27;7.70;;;;;;;24.45;22.70;97714.53;5131972;27;20160;-74
2021/11/12 13:33:46;;;;;;;20.08;8.88;;;;;;;24.38;24.11;97729.09;5131877;27;20035;-75
2021/11/12 13:36:21;;;;;;;34.33;16.02;;;;;;;24.84;23.85;97725.47;5131856;27;20019;-75
2021/11/12 13:39:03;;;;;;;20.52;10.65;;;;;;;24.39;24.11;97728.06;5112859;27;20020;-74
2021/11/12 13:41:31;;;;;;;51.35;25.63;;;;;;;23.51;23.99;97725.31;5131759;27;20027;-75
2021/11/12 13:44:04;;;;;;;19.13;10.32;;;;;;;22.95;25.26;97728.00;5096306;27;20075;-75
2021/11/12 13:46:53;;;;;;;18.17;11.10;;;;;;;22.52;25.98;97727.13;5096216;27;20065;-75
2021/11/12 13:49:34;;;;;;;18.13;7.32;;;;;;;22.15;27.12;97730.22;5114123;27;20042;-74
2021/11/12 13:52:07;;;;;;;10.38;6.10;;;;;;;22.06;27.38;97731.19;5130483;27;20051;-75
2021/11/12 13:54:39;;;;;;;11.88;6.55;;;;;;;22.08;28.30;97745.53;5097763;27;20035;-74
2021/11/12 13:57:25;;;;;;;11.02;6.90;;;;;;;22.44;28.45;97745.34;5113253;27;20023;-75
2021/11/12 13:59:57;;;;;;;13.38;8.07;;;;;;;22.52;28.59;97759.00;5096506;27;20091;-75
2021/11/12 14:02:23;;;;;;;12.27;7.38;;;;;;;22.50;28.70;97744.69;5113393;27;20020;-75
2021/11/12 14:04:49;;;;;;;15.20;7.53;;;;;;;22.34;29.24;97758.22;5110833;27;20494;-75
2021/11/12 14:07:21;;;;;;;18.48;9.13;;;;;;;21.36;31.05;97764.00;5096651;27;20039;-75
2021/11/12 14:10:00;;;;;;;19.50;8.63;;;;;;;20.79;31.85;97760.72;5111604;27;20027;-74
2021/11/12 14:12:27;;;;;;;21.95;8.60;;;;;;;19.59;34.08;97776.19;5109663;28;20027;-76
2021/11/12 14:15:32;;;;;;;19.15;8.60;;;;;;;19.11;35.06;97777.00;5094675;27;20039;-76
2021/11/12 14:35:24;;;;;;;58.00;25.33;;;;;;;15.66;43.42;97821.13;5110825;28;20023;-75
2021/11/12 14:38:24;;;;;;;44.75;23.67;;;;;;;15.32;44.25;97826.53;5073716;28;20039;-75
2021/11/12 14:54:36;;;;;;;97.82;46.10;;;;;;;13.16;49.09;97873.56;5110659;28;20042;-74
2021/11/12 14:57:07;;;;;;;112.05;53.13;;;;;;;12.75;50.61;97873.56;5095866;28;20032;-75
2021/11/12 14:59:35;;;;;;;160.48;78.50;;;;;;;12.31;50.97;97871.06;5094381;28;20027;-74
2021/11/12 15:02:06;;;;;;;164.23;85.75;;;;;;;12.01;52.11;97873.00;5095573;28;20035;-74
2021/11/12 15:04:31;;;;;;;173.85;89.35;;;;;;;11.87;53.14;97881.06;5118219;28;20078;-75
2021/11/12 15:06:58;;;;;;;191.43;94.47;;;;;;;11.79;53.34;97873.47;5131529;27;20480;-74
2021/11/12 15:09:28;;;;;;;168.75;81.47;;;;;;;11.56;54.48;97878.50;5134633;27;20053;-75
2021/11/12 15:11:54;;;;;;;173.85;88.65;;;;;;;11.34;56.14;97884.28;5130890;27;20066;-75
2021/11/12 15:14:26;;;;;;;194.02;92.28;;;;;;;11.19;56.90;97893.22;5134502;27;20026;-87
2021/11/12 15:16:52;;;;;;;152.30;77.73;;;;;;;11.03;57.54;97895.06;5101595;27;20474;-85
2021/11/12 15:19:19;;;;;;;110.90;53.75;;;;;;;10.96;57.26;97886.50;5107308;27;20038;-86
2021/11/12 15:27:08;;;;;;;73.35;35.33;;;;;;;10.63;59.67;97885.78;5128112;27;20053;-83
2021/11/12 15:29:43;;;;;;;73.22;38.85;;;;;;;10.69;60.54;97912.19;5114635;27;20031;-83
2021/11/12 15:32:28;;;;;;;108.57;50.08;;;;;;;10.37;61.44;97895.25;5115718;27;20125;-85
2021/11/12 15:35:04;;;;;;;93.30;41.35;;;;;;;10.36;62.27;97922.09;5114860;27;20065;-85
2021/11/12 15:45:37;;;;;;;90.50;42.97;;;;;;;9.65;64.56;97858.22;5138385;27;20053;-86
2021/11/12 15:48:13;;;;;;;88.63;43.22;;;;;;;9.65;65.25;97876.91;5133383;27;20042;-85
2021/11/12 15:54:51;;;;;;;106.93;48.28;;;;;;;9.59;67.74;97906.63;5140225;27;20061;-90
2021/11/12 15:57:37;;;;;;;132.23;57.65;;;;;;;8.96;67.90;97820.03;5158713;27;20058;-91
2021/11/12 16:06:36;;;;;;;;;;;;;;;;;;;;;
2021/11/12 16:21:30;;;;;;;62.85;35.22;;;;;;;8.73;72.37;97924.34;5104420;27;20032;-89
2021/11/12 16:24:17;;;;;;;69.07;35.00;;;;;;;8.74;72.63;97926.06;5133217;27;20520;-88
2021/11/12 16:26:51;;;;;;;65.18;34.95;;;;;;;8.70;72.81;97929.84;5121713;27;20091;-90
2021/11/12 16:29:34;;;;;;;67.43;35.92;;;;;;;8.35;73.58;97890.66;5119874;27;20027;-87
2021/11/12 16:32:04;;;;;;;65.47;37.08;;;;;;;8.53;74.45;97916.44;5106805;27;20034;-89
2021/11/12 16:34:35;;;;;;;63.10;36.45;;;;;;;8.33;74.81;97889.88;5106529;27;20124;-91
2021/11/12 16:50:24;;;;;;;81.85;42.95;;;;;;;7.78;77.48;97891.53;5104131;27;20031;-90
2021/11/12 17:04:32;;;;;;;98.55;48.58;;;;;;;7.31;84.78;97949.53;5139500;27;20050;-89
2021/11/12 17:16:37;;;;;;;72.68;36.13;;;;;;;6.27;87.85;97867.00;5123241;27;20433;-88
2021/11/12 17:22:27;;;;;;;73.53;33.42;;;;;;;6.53;89.66;97912.00;5113657;28;20521;-90
2021/11/12 17:46:28;;;;;;;45.55;20.98;;;;;;;6.19;94.42;97946.97;5098704;27;20057;-87
2021/11/12 17:49:06;;;;;;;32.80;17.58;;;;;;;6.09;96.55;97960.69;5094252;27;20027;-89
2021/11/12 17:51:41;;;;;;;41.83;21.02;;;;;;;6.14;95.90;97959.56;5095912;28;20035;-89
2021/11/12 18:02:28;;;;;;;39.50;20.92;;;;;;;5.88;98.42;97949.91;5117035;27;20547;-89
2021/11/12 21:48:41;;;;;;;103.30;48.80;;;;;;;2.66;100.00;97980.97;5126219;27;20023;-89
2021/11/12 21:51:11;;;;;;;110.30;50.33;;;;;;;2.82;100.00;97999.97;5103326;27;20091;-89
2021/11/12 21:53:36;;;;;;;128.55;55.67;;;;;;;2.73;100.00;97994.00;5095815;27;20023;-89
2021/11/12 21:56:04;;;;;;;123.22;54.28;;;;;;;2.74;100.00;97979.00;5100641;27;20512;-86
2021/11/12 21:58:30;;;;;;;108.78;50.33;;;;;;;2.76;100.00;97976.34;5098075;27;20015;-85
2021/11/12 22:00:57;;;;;;;75.45;33.75;;;;;;;2.67;100.00;97996.78;5098085;27;20031;-85
2021/11/12 22:03:23;;;;;;;69.93;33.75;;;;;;;2.61;100.00;97973.16;5098175;27;20081;-85
2021/11/12 22:05:50;;;;;;;58.22;29.15;;;;;;;2.75;100.00;97986.03;5087936;27;20047;-85
2021/11/12 22:08:16;;;;;;;57.45;26.05;;;;;;;2.62;100.00;97990.72;5080637;27;20031;-85
2021/11/12 22:10:42;;;;;;;54.55;27.65;;;;;;;2.69;100.00;97996.72;5083138;28;20040;-85
2021/11/12 22:13:09;;;;;;;60.97;28.65;;;;;;;2.73;100.00;97993.13;5086081;28;20035;-85
2021/11/12 22:15:35;;;;;;;70.28;33.55;;;;;;;2.80;100.00;97999.13;5082019;27;20106;-85
2021/11/12 22:18:01;;;;;;;70.00;34.38;;;;;;;2.85;100.00;97987.53;5088682;28;20179;-85
2021/11/12 22:20:27;;;;;;;76.18;32.33;;;;;;;2.84;100.00;97995.50;5087156;27;20470;-85
2021/11/12 22:22:53;;;;;;;70.97;30.63;;;;;;;2.67;100.00;97988.88;5085973;28;20610;-86
2021/11/12 22:25:27;;;;;;;69.85;34.00;;;;;;;2.74;100.00;97990.44;5087163;27;20027;-85
2021/11/12 22:27:53;;;;;;;71.32;36.33;;;;;;;2.86;100.00;97983.97;5088386;27;20059;-87
2021/11/12 22:30:18;;;;;;;83.03;35.65;;;;;;;2.73;100.00;97962.31;5088894;28;20525;-86
2021/11/12 22:32:44;;;;;;;68.05;34.00;;;;;;;2.80;100.00;97976.22;5098494;27;20049;-86
2021/11/12 22:35:10;;;;;;;73.13;32.20;;;;;;;2.76;100.00;97993.06;5082200;28;20081;-86
2021/11/12 22:37:40;;;;;;;73.15;34.67;;;;;;;2.65;100.00;97981.84;5089553;27;20029;-87
2021/11/12 22:40:07;;;;;;;80.90;37.75;;;;;;;2.66;100.00;97989.75;5095794;27;20472;-85
2021/11/12 22:42:33;;;;;;;90.25;41.90;;;;;;;2.68;100.00;97993.22;5096563;27;20041;-85
2021/11/12 22:44:59;;;;;;;103.63;49.75;;;;;;;2.72;100.00;97992.25;5090329;27;20474;-86
2021/11/12 22:47:27;;;;;;;106.45;46.50;;;;;;;2.64;100.00;97975.72;5082423;28;20439;-86
2021/11/12 22:49:53;;;;;;;99.20;44.63;;;;;;;2.65;100.00;97989.78;5079148;28;20031;-86
2021/11/12 22:52:19;;;;;;;77.93;37.92;;;;;;;2.58;100.00;97985.56;5077588;28;20055;-86
2021/11/12 22:54:47;;;;;;;85.05;40.15;;;;;;;2.57;100.00;97997.03;5073308;28;20080;-87
2021/11/12 22:57:17;;;;;;;78.25;36.78;;;;;;;2.37;100.00;97980.78;5103011;28;20047;-85
2021/11/12 22:59:44;;;;;;;76.03;34.47;;;;;;;2.37;100.00;97984.25;5083555;28;20164;-87
2021/11/12 23:02:10;;;;;;;72.88;34.75;;;;;;;2.29;100.00;97980.06;5083921;28;20019;-85
2021/11/12 23:04:36;;;;;;;81.95;34.83;;;;;;;2.35;100.00;97980.81;5099596;28;20190;-86
2021/11/12 23:07:01;;;;;;;77.82;36.45;;;;;;;2.39;100.00;97976.34;5088073;28;20039;-86
2021/11/12 23:09:27;;;;;;;75.68;35.10;;;;;;;2.37;100.00;97972.88;5108483;28;20019;-85